Time;durP1;ratioP1;P1;durP2;ratioP2;P2;SDS_P1;SDS_P2;PMS_P1;PMS_P2;Temp;Humidity;BMP_temperature;BMP_pressure;BME280_temperature;BME280_humidity;BME280_pressure;Samples;Min_cycle;Max_cycle;Signal;HPM_P1;HPM_P2
2022/03/10 00:00:53;;;;;;;5.63;2.90;;;;;;;-9.72;46.02;101376.06;5103208;28;20091;-58
2022/03/10 00:03:18;;;;;;;6.50;3.33;;;;;;;-9.69;45.94;101375.44;5110652;28;20031;-60
2022/03/10 00:05:44;;;;;;;6.05;3.25;;;;;;;-9.84;45.39;101377.50;5112194;28;20220;-60
2022/03/10 00:08:10;;;;;;;4.85;3.40;;;;;;;-9.95;45.76;101366.53;5107031;28;20016;-60
2022/03/10 00:10:35;;;;;;;5.30;3.17;;;;;;;-9.86;45.86;101368.97;5120271;27;20040;-61
2022/03/10 00:13:01;;;;;;;7.43;3.28;;;;;;;-9.96;44.65;101387.34;5099716;28;20184;-61
2022/03/10 00:15:26;;;;;;;4.65;3.10;;;;;;;-9.74;46.11;101376.69;5103443;28;20035;-60
2022/03/10 00:17:53;;;;;;;4.82;3.28;;;;;;;-9.75;45.63;101383.34;5102456;28;20027;-60
2022/03/10 00:20:21;;;;;;;4.95;3.28;;;;;;;-9.80;46.90;101392.06;5102866;28;20035;-59
2022/03/10 00:22:55;;;;;;;5.07;3.33;;;;;;;-10.08;46.88;101326.13;5103232;28;20028;-60
2022/03/10 00:25:21;;;;;;;4.93;3.47;;;;;;;-9.75;46.79;101392.44;5102481;28;20035;-59
2022/03/10 00:27:47;;;;;;;4.35;3.15;;;;;;;-9.86;45.95;101391.53;5104638;28;20077;-60
2022/03/10 00:30:14;;;;;;;7.18;3.60;;;;;;;-9.80;46.51;101393.69;5104842;28;20024;-60
2022/03/10 00:32:41;;;;;;;5.50;3.13;;;;;;;-10.00;47.10;101382.78;5106430;28;20219;-61
2022/03/10 00:35:08;;;;;;;4.53;3.10;;;;;;;-9.77;47.71;101386.44;5099733;28;20251;-60
2022/03/10 00:37:34;;;;;;;6.60;3.25;;;;;;;-9.81;46.95;101384.41;5104123;28;20030;-61
2022/03/10 00:39:59;;;;;;;5.43;3.10;;;;;;;-9.82;46.00;101401.06;5102968;28;20038;-59
2022/03/10 00:42:25;;;;;;;4.03;2.80;;;;;;;-9.94;46.82;101410.88;5120228;28;20035;-62
2022/03/10 00:44:50;;;;;;;5.05;3.30;;;;;;;-9.90;46.60;101402.91;5107264;28;20050;-58
2022/03/10 00:47:16;;;;;;;6.35;3.78;;;;;;;-10.02;47.41;101399.28;5116630;28;20231;-59
2022/03/10 00:49:41;;;;;;;7.85;3.60;;;;;;;-9.94;45.90;101400.84;5114323;28;20027;-59
2022/03/10 00:52:07;;;;;;;6.47;3.05;;;;;;;-9.98;46.47;101403.84;5116223;28;20254;-59
2022/03/10 00:54:32;;;;;;;5.47;3.45;;;;;;;-10.01;46.77;101391.03;5109674;28;20049;-60
2022/03/10 00:56:58;;;;;;;6.60;3.80;;;;;;;-9.92;47.63;101398.50;5106928;28;20015;-59
2022/03/10 00:59:23;;;;;;;4.38;3.22;;;;;;;-9.89;48.32;101412.19;5118301;28;20038;-60
2022/03/10 01:01:49;;;;;;;5.05;3.40;;;;;;;-9.91;46.50;101411.16;5118880;28;20020;-60
2022/03/10 01:04:15;;;;;;;5.95;3.30;;;;;;;-10.03;45.58;101427.63;5120821;28;20027;-59
2022/03/10 01:06:41;;;;;;;7.55;3.42;;;;;;;-10.06;47.12;101423.22;5103347;28;20039;-60
2022/03/10 01:09:06;;;;;;;4.20;3.30;;;;;;;-10.00;47.01;101410.34;5102712;28;20043;-60
2022/03/10 01:11:33;;;;;;;5.85;3.38;;;;;;;-10.10;46.71;101422.81;5102679;28;20031;-59
2022/03/10 01:13:59;;;;;;;7.53;3.85;;;;;;;-9.95;46.95;101440.81;5101083;28;20103;-59
2022/03/10 01:16:24;;;;;;;7.15;3.58;;;;;;;-10.06;46.97;101427.31;5105234;28;20028;-60
2022/03/10 01:18:50;;;;;;;4.78;3.40;;;;;;;-10.07;48.21;101438.09;5103841;28;20045;-60
2022/03/10 01:21:15;;;;;;;7.70;3.70;;;;;;;-10.12;46.38;101435.16;5098342;28;20030;-59
2022/03/10 01:23:41;;;;;;;6.53;3.55;;;;;;;-10.15;47.55;101439.03;5101474;28;20015;-60
2022/03/10 01:26:07;;;;;;;5.88;3.80;;;;;;;-10.26;46.21;101445.56;5100922;28;20020;-59
2022/03/10 01:28:32;;;;;;;7.28;3.67;;;;;;;-10.24;46.62;101429.94;5120861;28;20027;-58
2022/03/10 01:30:58;;;;;;;5.18;3.38;;;;;;;-10.26;47.35;101433.94;5105043;28;20024;-59
2022/03/10 01:33:23;;;;;;;6.00;3.65;;;;;;;-10.23;47.04;101444.25;5116329;28;20030;-58
2022/03/10 01:35:49;;;;;;;7.63;3.60;;;;;;;-10.21;48.38;101443.50;5100469;28;20305;-59
2022/03/10 01:38:14;;;;;;;7.47;4.13;;;;;;;-10.19;49.18;101439.50;5102022;28;20032;-59
2022/03/10 01:40:40;;;;;;;6.75;3.63;;;;;;;-10.32;47.40;101428.38;5101003;28;20144;-60
2022/03/10 01:43:05;;;;;;;9.50;3.97;;;;;;;-10.26;49.37;101441.47;5106925;28;20034;-61
2022/03/10 01:45:31;;;;;;;5.80;3.97;;;;;;;-10.28;49.23;101437.91;5115901;28;20019;-60
2022/03/10 01:47:56;;;;;;;5.60;3.42;;;;;;;-10.19;47.98;101447.88;5108122;28;20244;-60
2022/03/10 01:50:22;;;;;;;4.95;3.53;;;;;;;-10.83;48.49;101397.88;5101362;28;20030;-60
2022/03/10 01:52:48;;;;;;;6.13;3.75;;;;;;;-10.56;49.21;101456.22;5114232;28;20020;-59
2022/03/10 01:55:14;;;;;;;7.68;3.45;;;;;;;-10.61;47.62;101460.81;5118534;28;20100;-59
2022/03/10 01:57:42;;;;;;;6.10;4.05;;;;;;;-10.90;49.08;101421.47;5117491;28;20051;-60
2022/03/10 02:00:11;;;;;;;4.55;3.42;;;;;;;-10.57;48.38;101446.94;5116680;28;20049;-59
2022/03/10 02:02:37;;;;;;;6.97;3.97;;;;;;;-10.45;48.30;101463.09;5116599;28;20020;-60
2022/03/10 02:05:03;;;;;;;4.82;3.70;;;;;;;-10.56;49.35;101457.09;5107791;28;20030;-60
2022/03/10 02:10:16;;;;;;;5.85;3.80;;;;;;;-10.55;48.61;101463.00;5104919;28;20099;-60
2022/03/10 02:12:47;;;;;;;6.97;4.18;;;;;;;-10.42;48.38;101468.38;5114837;28;20062;-60
2022/03/10 02:18:09;;;;;;;8.32;4.18;;;;;;;-10.64;48.99;101473.06;5114895;28;20351;-59
2022/03/10 02:20:36;;;;;;;8.70;4.47;;;;;;;-10.50;49.00;101472.69;5109648;28;20327;-61
2022/03/10 02:23:02;;;;;;;6.22;4.00;;;;;;;-10.51;49.02;101480.94;5115932;28;20043;-60
2022/03/10 02:25:28;;;;;;;7.90;3.78;;;;;;;-10.47;48.87;101484.63;5107816;28;20028;-60
2022/03/10 02:27:55;;;;;;;6.72;4.63;;;;;;;-10.62;49.11;101487.44;5088119;28;20288;-60
2022/03/10 02:30:23;;;;;;;8.93;3.70;;;;;;;-10.51;47.55;101488.44;5123606;28;20258;-61
2022/03/10 02:32:49;;;;;;;6.20;4.20;;;;;;;-10.46;47.74;101493.88;5106979;28;20228;-60
2022/03/10 02:35:15;;;;;;;8.02;4.22;;;;;;;-10.45;49.73;101493.13;5110973;28;20028;-59
2022/03/10 02:37:42;;;;;;;7.63;4.10;;;;;;;-10.51;47.96;101490.94;5104421;28;20027;-60
2022/03/10 02:40:09;;;;;;;6.60;4.53;;;;;;;-10.73;49.41;101475.56;5104728;28;20085;-60
2022/03/10 02:42:35;;;;;;;7.53;3.95;;;;;;;-10.72;48.71;101487.34;5103239;28;20027;-60
2022/03/10 02:45:01;;;;;;;6.28;4.25;;;;;;;-10.64;50.17;101493.94;5104645;28;20024;-60
2022/03/10 02:47:30;;;;;;;8.20;4.75;;;;;;;-10.66;48.93;101499.53;5105550;28;20026;-62
2022/03/10 02:49:55;;;;;;;11.35;4.18;;;;;;;-10.64;50.24;101503.09;5119540;28;20056;-59
2022/03/10 02:52:21;;;;;;;9.52;5.00;;;;;;;-10.76;48.17;101505.31;5115041;28;20320;-59
2022/03/10 02:54:47;;;;;;;8.40;4.35;;;;;;;-10.73;49.28;101502.22;5105123;28;20035;-58
2022/03/10 02:57:13;;;;;;;7.97;4.22;;;;;;;-10.83;48.58;101510.47;5118698;28;20031;-58
2022/03/10 02:59:39;;;;;;;9.38;4.10;;;;;;;-10.68;48.58;101516.03;5119268;28;20031;-58
2022/03/10 03:02:05;;;;;;;8.93;4.82;;;;;;;-10.68;49.37;101519.41;5109901;28;20028;-58
2022/03/10 03:04:31;;;;;;;7.15;4.38;;;;;;;-10.80;48.50;101496.66;5112459;28;20015;-60
2022/03/10 03:06:57;;;;;;;9.30;4.90;;;;;;;-10.73;48.91;101518.09;5104983;28;20032;-58
2022/03/10 03:09:22;;;;;;;11.32;4.55;;;;;;;-10.83;48.92;101512.97;5101722;28;20047;-59
2022/03/10 03:11:48;;;;;;;10.25;5.18;;;;;;;-10.92;49.15;101520.50;5107856;28;20255;-59
2022/03/10 03:14:14;;;;;;;7.70;5.00;;;;;;;-11.20;49.79;101514.50;5105000;28;20024;-57
2022/03/10 03:16:40;;;;;;;7.45;4.88;;;;;;;-11.13;50.44;101519.34;5106803;28;20036;-59
2022/03/10 03:19:06;;;;;;;9.18;5.60;;;;;;;-11.20;49.09;101527.00;5123011;28;20031;-59
2022/03/10 03:21:32;;;;;;;7.80;4.60;;;;;;;-11.32;50.05;101507.59;5121422;28;20040;-59
2022/03/10 03:23:58;;;;;;;7.63;5.13;;;;;;;-11.02;51.40;101518.75;5106933;28;20031;-58
2022/03/10 03:26:23;;;;;;;7.65;4.70;;;;;;;-11.04;50.75;101522.75;5104102;28;20077;-58
2022/03/10 03:28:49;;;;;;;10.27;5.10;;;;;;;-10.95;51.55;101528.59;5108677;28;20027;-59
2022/03/10 03:31:16;;;;;;;8.93;5.00;;;;;;;-11.02;49.26;101525.38;5111786;28;20035;-59
2022/03/10 03:33:42;;;;;;;9.20;4.90;;;;;;;-10.98;49.85;101527.44;5114725;28;20024;-57
2022/03/10 03:36:08;;;;;;;8.57;5.00;;;;;;;-11.00;51.42;101524.81;5103950;28;20096;-58
2022/03/10 03:38:34;;;;;;;9.52;5.28;;;;;;;-11.10;51.41;101527.13;5103046;28;20020;-58
2022/03/10 03:40:59;;;;;;;8.57;5.47;;;;;;;-11.12;49.70;101519.50;5104084;28;20074;-59
2022/03/10 03:43:25;;;;;;;10.90;5.55;;;;;;;-11.16;50.32;101536.56;5122416;28;20039;-60
2022/03/10 03:45:51;;;;;;;12.38;6.53;;;;;;;-11.12;50.41;101544.50;5120838;28;20047;-59
2022/03/10 03:48:16;;;;;;;12.00;6.57;;;;;;;-11.19;50.22;101541.28;5113424;28;20024;-58
2022/03/10 03:50:42;;;;;;;8.90;5.93;;;;;;;-11.34;50.07;101544.09;5106012;28;20079;-57
2022/03/10 03:53:07;;;;;;;9.88;6.40;;;;;;;-11.28;50.31;101552.16;5102626;28;20032;-57
2022/03/10 03:55:33;;;;;;;11.20;6.85;;;;;;;-11.22;50.52;101558.50;5105056;28;20019;-58
2022/03/10 03:57:58;;;;;;;11.73;6.50;;;;;;;-11.15;50.11;101569.22;5108849;28;20207;-58
2022/03/10 04:00:24;;;;;;;8.48;5.68;;;;;;;-11.21;51.71;101583.66;5110554;28;20229;-57
2022/03/10 04:02:49;;;;;;;9.65;5.35;;;;;;;-11.41;50.50;101560.81;5101442;28;20020;-58
2022/03/10 04:05:16;;;;;;;12.82;5.60;;;;;;;-11.40;50.71;101572.59;5103736;28;20036;-58
2022/03/10 04:07:42;;;;;;;9.98;4.72;;;;;;;-11.29;51.03;101575.38;5118239;28;20059;-59
2022/03/10 04:10:08;;;;;;;7.57;5.03;;;;;;;-11.33;50.96;101585.84;5118915;28;20040;-58
2022/03/10 04:12:34;;;;;;;8.32;5.18;;;;;;;-11.34;50.65;101583.19;5106086;28;20369;-58
2022/03/10 04:15:00;;;;;;;7.60;4.78;;;;;;;-11.39;50.90;101589.38;5114168;28;20023;-60
2022/03/10 04:17:26;;;;;;;9.60;4.85;;;;;;;-11.32;50.42;101592.59;5111690;28;20038;-56
2022/03/10 04:19:52;;;;;;;9.55;4.45;;;;;;;-11.31;50.56;101589.38;5119017;28;20027;-57
2022/03/10 04:22:18;;;;;;;14.48;4.35;;;;;;;-11.41;50.84;101599.22;5118995;28;20047;-58
2022/03/10 04:24:43;;;;;;;7.38;4.85;;;;;;;-11.50;51.02;101574.22;5115964;28;20089;-57
2022/03/10 04:27:09;;;;;;;9.27;4.40;;;;;;;-11.37;50.94;101596.28;5104046;28;20024;-58
2022/03/10 04:29:34;;;;;;;8.55;4.63;;;;;;;-11.42;51.49;101599.94;5117708;28;20059;-58
2022/03/10 04:32:00;;;;;;;12.60;4.68;;;;;;;-11.22;51.76;101601.00;5094011;28;20032;-59
2022/03/10 04:34:25;;;;;;;10.43;4.97;;;;;;;-11.22;51.07;101591.00;5114736;28;20027;-61
2022/03/10 04:36:51;;;;;;;10.20;4.85;;;;;;;-11.14;50.64;101596.00;5102627;28;20028;-59
2022/03/10 04:39:17;;;;;;;8.38;4.50;;;;;;;-11.03;51.16;101606.16;5114097;28;20340;-59
2022/03/10 04:41:43;;;;;;;13.07;4.32;;;;;;;-11.20;50.44;101607.03;5118130;28;20275;-58
2022/03/10 04:44:10;;;;;;;8.00;4.32;;;;;;;-11.22;50.07;101604.38;5117903;28;20027;-59
2022/03/10 04:46:36;;;;;;;9.82;4.45;;;;;;;-11.14;50.65;101611.00;5111541;28;20024;-58
2022/03/10 04:49:02;;;;;;;10.77;4.65;;;;;;;-11.35;50.01;101614.81;5102471;28;20032;-59
2022/03/10 04:51:28;;;;;;;7.53;4.72;;;;;;;-11.28;49.32;101601.28;5103327;28;20020;-58
2022/03/10 04:53:54;;;;;;;15.27;5.47;;;;;;;-11.10;50.08;101609.66;5104726;28;20061;-59
2022/03/10 04:56:20;;;;;;;12.77;5.00;;;;;;;-11.03;49.80;101611.16;5118071;28;20019;-57
2022/03/10 04:58:45;;;;;;;6.93;4.10;;;;;;;-10.88;50.33;101614.25;5103844;28;20072;-59
2022/03/10 05:01:12;;;;;;;7.65;4.18;;;;;;;-10.83;51.20;101608.97;5116793;28;20035;-60
2022/03/10 05:03:38;;;;;;;10.05;4.40;;;;;;;-10.81;50.75;101612.47;5117940;28;20087;-58
2022/03/10 05:06:04;;;;;;;11.55;5.50;;;;;;;-10.70;50.84;101621.00;5108813;28;20042;-61
2022/03/10 05:08:29;;;;;;;8.73;4.30;;;;;;;-10.68;49.06;101623.66;5101760;28;20266;-59
2022/03/10 05:10:55;;;;;;;10.02;4.90;;;;;;;-10.71;48.99;101619.25;5103172;28;20062;-58
2022/03/10 05:13:21;;;;;;;9.63;4.80;;;;;;;-10.66;49.69;101632.19;5102156;28;20062;-57
2022/03/10 05:15:47;;;;;;;6.75;4.55;;;;;;;-10.66;48.00;101627.19;5101503;28;20317;-60
2022/03/10 05:18:12;;;;;;;8.55;5.55;;;;;;;-10.99;49.78;101584.06;5116151;28;20016;-59
2022/03/10 05:20:38;;;;;;;10.95;4.93;;;;;;;-10.53;47.99;101645.16;5100577;28;20044;-59
2022/03/10 05:23:05;;;;;;;13.10;4.68;;;;;;;-10.46;49.20;101636.56;5117427;28;20213;-57
2022/03/10 05:25:35;;;;;;;8.35;4.40;;;;;;;-10.64;47.93;101601.56;5101659;28;20020;-59
2022/03/10 05:28:01;;;;;;;15.10;4.95;;;;;;;-10.42;48.09;101639.53;5099172;28;20035;-58
2022/03/10 05:30:27;;;;;;;10.68;3.95;;;;;;;-10.38;48.71;101645.69;5096234;28;20033;-59
2022/03/10 05:32:52;;;;;;;14.52;4.68;;;;;;;-10.24;48.82;101656.97;5103570;28;20317;-58
2022/03/10 05:35:18;;;;;;;8.52;4.22;;;;;;;-10.24;47.99;101645.31;5111673;28;20023;-59
2022/03/10 05:37:46;;;;;;;10.60;5.13;;;;;;;-10.66;47.88;101575.53;5117382;28;20027;-59
2022/03/10 05:40:18;;;;;;;8.73;4.68;;;;;;;-10.62;47.29;101571.66;5107661;28;20024;-59
2022/03/10 05:42:45;;;;;;;7.38;4.78;;;;;;;-10.10;48.21;101648.25;5101914;28;20039;-59
2022/03/10 05:45:12;;;;;;;9.68;4.90;;;;;;;-10.72;47.40;101556.53;5105077;28;20342;-58
2022/03/10 05:47:39;;;;;;;9.85;4.90;;;;;;;-10.03;47.40;101640.56;5111895;28;20088;-58
2022/03/10 05:50:06;;;;;;;7.72;4.50;;;;;;;-9.97;46.31;101656.16;5117532;28;20035;-58
2022/03/10 05:52:31;;;;;;;13.13;4.72;;;;;;;-9.89;47.08;101640.22;5104728;28;20225;-58
2022/03/10 05:54:57;;;;;;;7.22;4.25;;;;;;;-9.83;45.50;101654.94;5117687;28;20037;-60
2022/03/10 05:57:23;;;;;;;11.40;4.70;;;;;;;-9.78;45.84;101642.81;5116983;28;20299;-59
2022/03/10 05:59:49;;;;;;;10.10;4.50;;;;;;;-9.72;47.62;101639.25;5112209;28;20036;-58
2022/03/10 06:02:18;;;;;;;6.72;4.28;;;;;;;-9.57;44.68;101654.81;5113722;28;20072;-58
2022/03/10 06:04:45;;;;;;;11.82;4.18;;;;;;;-9.51;44.74;101646.97;5104485;28;20030;-58
2022/03/10 06:07:11;;;;;;;8.23;3.85;;;;;;;-9.47;43.89;101656.53;5105113;28;20038;-59
2022/03/10 06:09:36;;;;;;;5.93;4.15;;;;;;;-9.33;45.10;101662.81;5104527;28;20272;-59
2022/03/10 06:12:03;;;;;;;5.00;3.55;;;;;;;-9.28;43.99;101673.25;5104389;28;20036;-61
2022/03/10 06:14:28;;;;;;;7.95;3.38;;;;;;;-9.20;43.17;101670.69;5116169;28;20127;-58
2022/03/10 06:16:54;;;;;;;6.78;4.05;;;;;;;-9.08;44.25;101667.50;5120109;28;20164;-59
2022/03/10 06:19:20;;;;;;;6.18;3.63;;;;;;;-8.99;44.03;101658.31;5119576;28;20115;-58
2022/03/10 06:21:47;;;;;;;5.43;3.45;;;;;;;-8.93;43.85;101663.00;5110140;28;20081;-58
2022/03/10 06:24:13;;;;;;;7.30;3.13;;;;;;;-8.88;43.41;101667.69;5104603;28;20027;-59
2022/03/10 06:26:39;;;;;;;6.43;3.25;;;;;;;-8.74;42.03;101655.44;5111233;28;20026;-59
2022/03/10 06:29:06;;;;;;;6.93;3.83;;;;;;;-8.60;43.32;101664.19;5112986;27;20098;-58
2022/03/10 06:31:32;;;;;;;4.95;3.53;;;;;;;-8.40;42.32;101666.78;5107312;28;20304;-59
2022/03/10 06:33:58;;;;;;;5.47;3.50;;;;;;;-8.51;42.00;101659.97;5121943;28;20080;-58
2022/03/10 06:36:25;;;;;;;7.05;2.83;;;;;;;-8.21;40.13;101663.34;5105227;28;20329;-57
2022/03/10 06:38:50;;;;;;;7.35;3.10;;;;;;;-7.70;38.89;101667.66;5119776;28;20031;-58
2022/03/10 06:41:16;;;;;;;4.40;3.20;;;;;;;-7.47;37.99;101662.91;5106028;28;20062;-58
2022/03/10 06:43:42;;;;;;;5.75;3.10;;;;;;;-7.30;38.38;101670.97;5102094;28;20031;-58
2022/03/10 06:46:07;;;;;;;5.07;2.58;;;;;;;-7.33;37.35;101683.31;5101810;28;20051;-58
2022/03/10 06:48:34;;;;;;;9.43;2.90;;;;;;;-6.77;36.98;101669.44;5105770;28;20221;-58
2022/03/10 06:51:01;;;;;;;5.43;3.38;;;;;;;-6.30;35.41;101673.09;5105540;28;20032;-61
2022/03/10 06:53:26;;;;;;;5.80;3.20;;;;;;;-5.70;35.38;101669.25;5119476;28;20028;-59
2022/03/10 06:55:52;;;;;;;6.20;2.67;;;;;;;-5.25;35.13;101658.34;5105019;28;20028;-60
2022/03/10 06:58:18;;;;;;;5.70;2.53;;;;;;;-3.97;33.29;101654.84;5101553;28;20352;-58
2022/03/10 07:00:44;;;;;;;6.25;2.60;;;;;;;-3.90;32.39;101667.16;5104239;28;20020;-60
2022/03/10 07:03:10;;;;;;;7.13;3.10;;;;;;;-3.04;32.65;101648.38;5104074;28;20025;-59
2022/03/10 07:05:35;;;;;;;7.18;2.88;;;;;;;-2.11;31.01;101660.19;5105958;28;20042;-59
2022/03/10 07:08:01;;;;;;;8.98;3.05;;;;;;;-2.16;29.52;101659.91;5103671;28;20093;-59
2022/03/10 07:10:27;;;;;;;7.93;2.90;;;;;;;-2.05;29.72;101667.31;5104677;28;20040;-59
2022/03/10 07:12:54;;;;;;;6.82;3.05;;;;;;;-1.34;28.80;101664.84;5104124;28;20078;-59
2022/03/10 07:15:20;;;;;;;5.10;2.88;;;;;;;-1.40;28.91;101667.00;5103825;28;20229;-59
2022/03/10 07:17:45;;;;;;;6.75;3.45;;;;;;;-0.84;29.22;101662.59;5105500;28;20077;-59
2022/03/10 07:20:14;;;;;;;6.25;2.50;;;;;;;-1.00;28.02;101664.25;5103601;28;20027;-59
2022/03/10 07:22:39;;;;;;;7.03;3.38;;;;;;;-0.11;28.28;101660.72;5104598;28;20031;-59
2022/03/10 07:25:06;;;;;;;8.02;3.17;;;;;;;-0.48;28.18;101662.94;5102789;28;20098;-59
2022/03/10 07:27:32;;;;;;;5.32;2.47;;;;;;;-0.38;28.12;101662.66;5101968;28;20389;-61
2022/03/10 07:29:57;;;;;;;7.28;3.00;;;;;;;-0.77;27.95;101667.25;5120839;28;20036;-60
2022/03/10 07:32:26;;;;;;;4.05;2.53;;;;;;;-0.79;27.54;101662.06;5117281;28;20028;-59
2022/03/10 07:34:52;;;;;;;6.70;3.15;;;;;;;-0.39;28.05;101650.69;5108430;28;20042;-59
2022/03/10 07:37:17;;;;;;;5.63;3.08;;;;;;;-0.67;26.62;101649.19;5091287;28;20032;-61
2022/03/10 07:39:43;;;;;;;3.53;2.80;;;;;;;-0.05;27.47;101648.31;5097381;28;20055;-59
2022/03/10 07:42:09;;;;;;;6.40;3.20;;;;;;;-1.06;27.74;101644.44;5109440;28;20022;-59
2022/03/10 07:44:34;;;;;;;5.20;2.40;;;;;;;-0.15;27.05;101646.06;5117969;28;20066;-59
2022/03/10 07:47:00;;;;;;;4.88;2.83;;;;;;;-0.28;26.87;101658.94;5114015;28;20032;-59
2022/03/10 07:49:25;;;;;;;4.00;2.78;;;;;;;0.35;26.70;101649.56;5119163;28;20321;-59
2022/03/10 07:51:51;;;;;;;3.90;2.33;;;;;;;0.18;26.47;101646.13;5108668;28;20078;-59
2022/03/10 07:54:16;;;;;;;4.47;2.50;;;;;;;0.54;25.49;101656.47;5102457;28;20024;-59
2022/03/10 07:56:42;;;;;;;3.67;2.75;;;;;;;0.93;25.61;101653.34;5104269;28;20069;-60
2022/03/10 07:59:08;;;;;;;3.75;2.10;;;;;;;0.78;25.95;101656.84;5103816;28;20028;-59
2022/03/10 08:01:33;;;;;;;7.32;2.63;;;;;;;0.56;25.48;101654.03;5104891;28;20114;-59
2022/03/10 08:03:59;;;;;;;6.68;3.13;;;;;;;0.73;26.74;101648.09;5103514;28;20067;-60
2022/03/10 08:06:26;;;;;;;4.28;2.50;;;;;;;-1.13;26.42;101649.09;5104641;28;20035;-60
2022/03/10 08:08:52;;;;;;;5.68;2.67;;;;;;;-0.18;26.92;101644.22;5096905;28;20036;-60
2022/03/10 08:11:17;;;;;;;5.82;2.47;;;;;;;-0.99;27.05;101653.31;5104142;28;20194;-59
2022/03/10 08:13:43;;;;;;;4.90;2.30;;;;;;;-1.20;28.05;101641.91;5120107;28;20016;-60
2022/03/10 08:16:10;;;;;;;3.50;2.70;;;;;;;-1.28;26.70;101649.09;5120826;28;20088;-60
2022/03/10 08:18:36;;;;;;;5.03;2.53;;;;;;;-1.41;27.82;101650.00;5119298;28;20053;-58
2022/03/10 08:21:01;;;;;;;3.33;2.50;;;;;;;-1.44;27.69;101643.09;5104870;28;20309;-59
2022/03/10 08:23:27;;;;;;;5.50;2.97;;;;;;;-1.79;27.42;101653.69;5107856;28;20152;-60
2022/03/10 08:25:52;;;;;;;4.63;2.85;;;;;;;-0.80;27.85;101641.63;5112947;28;20024;-60
2022/03/10 08:28:18;;;;;;;5.57;2.42;;;;;;;-0.47;27.23;101644.31;5118570;28;20377;-60
2022/03/10 08:30:44;;;;;;;6.53;2.55;;;;;;;-0.58;26.75;101643.72;5116712;28;20032;-60
2022/03/10 08:33:09;;;;;;;2.63;2.40;;;;;;;-0.58;27.90;101636.97;5118586;28;20028;-60
2022/03/10 08:35:35;;;;;;;6.45;2.55;;;;;;;-0.55;25.74;101632.03;5118801;28;20020;-59
2022/03/10 08:38:00;;;;;;;6.10;2.50;;;;;;;-0.43;27.18;101638.59;5103459;28;20344;-60
2022/03/10 08:40:28;;;;;;;4.50;2.53;;;;;;;-0.14;27.13;101624.91;5101496;28;20064;-59
2022/03/10 08:42:54;;;;;;;4.22;2.10;;;;;;;-0.75;26.30;101630.94;5110687;28;20073;-60
2022/03/10 08:45:20;;;;;;;6.90;2.47;;;;;;;-0.65;26.91;101627.25;5090787;28;20036;-59
2022/03/10 08:47:47;;;;;;;4.78;2.50;;;;;;;-0.87;26.12;101633.66;5107375;28;20032;-61
2022/03/10 08:50:12;;;;;;;13.82;2.83;;;;;;;-0.36;26.65;101636.50;5111718;28;20027;-61
2022/03/10 08:52:39;;;;;;;3.55;2.15;;;;;;;-1.43;26.40;101646.50;5109096;28;20036;-60
2022/03/10 08:55:05;;;;;;;7.45;2.67;;;;;;;-1.54;27.14;101638.22;5108730;28;20026;-59
2022/03/10 08:57:34;;;;;;;5.53;2.55;;;;;;;-1.60;26.69;101632.81;5114500;28;20047;-60
2022/03/10 09:00:00;;;;;;;4.85;2.33;;;;;;;-0.63;28.18;101622.22;5104023;28;20043;-61
2022/03/10 09:02:25;;;;;;;4.38;2.20;;;;;;;0.08;27.72;101619.28;5107448;28;20036;-59
2022/03/10 09:04:51;;;;;;;3.67;2.33;;;;;;;0.72;25.43;101627.63;5100607;28;20024;-60
2022/03/10 09:07:16;;;;;;;4.22;1.65;;;;;;;-0.62;25.13;101631.63;5100715;28;20050;-60
2022/03/10 09:09:42;;;;;;;6.75;2.10;;;;;;;-0.90;26.65;101623.34;5109124;28;20267;-61
2022/03/10 09:12:08;;;;;;;6.82;2.47;;;;;;;-0.60;26.96;101630.03;5114269;28;20043;-59
2022/03/10 09:14:34;;;;;;;4.85;2.15;;;;;;;-0.49;26.16;101628.97;5117919;28;20030;-59
2022/03/10 09:16:59;;;;;;;5.72;2.55;;;;;;;-0.02;25.33;101629.78;5118111;28;20019;-58
2022/03/10 09:19:25;;;;;;;3.92;2.25;;;;;;;-1.15;27.29;101641.38;5112791;28;20027;-59
2022/03/10 09:21:51;;;;;;;4.05;2.42;;;;;;;0.16;28.09;101618.00;5104599;28;20081;-60
2022/03/10 09:24:17;;;;;;;4.57;2.30;;;;;;;0.28;25.34;101622.00;5116462;28;20039;-59
2022/03/10 09:26:43;;;;;;;3.08;2.13;;;;;;;-0.59;25.81;101624.16;5119589;28;20028;-60
2022/03/10 09:29:08;;;;;;;2.58;2.10;;;;;;;-0.79;26.31;101621.38;5105108;28;20020;-60
2022/03/10 09:31:34;;;;;;;2.08;1.88;;;;;;;0.33;27.11;101621.44;5106415;28;20085;-58
2022/03/10 09:34:00;;;;;;;5.07;2.22;;;;;;;0.54;27.41;101607.16;5121440;28;20031;-60
2022/03/10 09:36:28;;;;;;;3.72;1.80;;;;;;;0.38;25.82;101619.13;5121910;27;20284;-58
2022/03/10 09:38:54;;;;;;;2.78;1.88;;;;;;;-0.36;25.31;101620.31;5115616;27;20020;-59
2022/03/10 09:41:20;;;;;;;4.43;2.00;;;;;;;0.04;25.94;101612.28;5114880;28;20066;-58
2022/03/10 09:43:47;;;;;;;3.15;1.90;;;;;;;-1.15;26.46;101617.63;5113721;28;20032;-60
2022/03/10 09:46:13;;;;;;;2.67;1.55;;;;;;;-1.77;27.32;101621.63;5110274;28;20024;-59
2022/03/10 09:48:39;;;;;;;9.82;2.15;;;;;;;-2.19;28.21;101644.50;5117651;28;20091;-60
2022/03/10 09:51:06;;;;;;;5.43;2.40;;;;;;;-2.30;28.89;101625.19;5105716;28;20138;-60
2022/03/10 09:53:34;;;;;;;2.38;1.92;;;;;;;-2.45;28.11;101622.59;5121478;28;20035;-59
2022/03/10 09:56:02;;;;;;;2.08;1.80;;;;;;;-2.58;28.43;101623.44;5106197;28;20378;-59
2022/03/10 09:58:28;;;;;;;3.78;2.53;;;;;;;-2.31;28.65;101619.25;5122429;28;20112;-61
2022/03/10 10:01:06;;;;;;;4.05;2.00;;;;;;;-2.42;28.41;101638.00;5120154;28;20272;-59
2022/03/10 10:03:33;;;;;;;3.30;1.88;;;;;;;-2.30;27.93;101599.81;5107365;28;20036;-59
2022/03/10 10:06:01;;;;;;;4.00;1.80;;;;;;;-2.39;28.87;101564.63;5117286;28;20042;-59
2022/03/10 10:08:28;;;;;;;3.22;1.70;;;;;;;-2.22;28.46;101597.75;5110613;28;20024;-59
2022/03/10 10:10:56;;;;;;;6.88;1.88;;;;;;;-1.98;29.49;101628.81;5112979;28;20228;-60
2022/03/10 10:13:43;;;;;;;7.28;2.05;;;;;;;-2.12;29.55;101626.31;5114326;28;20020;-61
2022/03/10 10:16:12;;;;;;;1.75;1.60;;;;;;;-2.36;28.30;101547.03;5103953;28;20312;-61
2022/03/10 10:18:39;;;;;;;2.17;1.77;;;;;;;-1.84;29.25;101596.66;5109362;28;20024;-59
2022/03/10 10:21:06;;;;;;;3.40;1.75;;;;;;;-1.77;28.84;101612.38;5119838;28;20061;-60
2022/03/10 10:23:37;;;;;;;3.92;1.80;;;;;;;-1.99;27.91;101551.81;5105675;28;20031;-60
2022/03/10 10:26:09;;;;;;;6.63;2.20;;;;;;;-1.64;29.08;101601.28;5105678;28;20016;-59
2022/03/10 10:28:36;;;;;;;4.28;1.60;;;;;;;-2.01;28.39;101623.56;5120632;28;20654;-59
2022/03/10 10:31:03;;;;;;;2.58;1.60;;;;;;;-2.63;28.92;101546.22;5112106;28;20067;-59
2022/03/10 10:33:31;;;;;;;4.32;1.52;;;;;;;-2.37;28.78;101596.00;5120160;28;20247;-60
2022/03/10 10:36:16;;;;;;;1.80;1.65;;;;;;;-2.49;29.19;101542.88;5107642;28;20050;-60
2022/03/10 10:38:44;;;;;;;3.92;1.67;;;;;;;-2.05;28.33;101611.47;5104090;28;20332;-59
2022/03/10 10:41:22;;;;;;;3.05;2.10;;;;;;;-1.91;27.85;101606.47;5103834;28;20032;-59
2022/03/10 10:43:50;;;;;;;2.55;1.73;;;;;;;-2.05;29.21;101581.91;5115653;28;20146;-60
2022/03/10 10:46:24;;;;;;;8.73;2.63;;;;;;;-1.77;28.92;101624.16;5115146;28;20042;-60
2022/03/10 10:48:50;;;;;;;4.10;1.63;;;;;;;-1.95;28.49;101594.34;5120488;28;20062;-59
2022/03/10 10:51:41;;;;;;;3.35;1.67;;;;;;;-1.82;29.99;101569.72;5115137;28;20024;-60
2022/03/10 10:54:27;;;;;;;4.03;2.25;;;;;;;-1.56;29.66;101594.09;5110068;28;20015;-60
2022/03/10 10:56:56;;;;;;;2.92;1.70;;;;;;;-1.57;28.44;101610.13;5118765;28;20036;-59
2022/03/10 10:59:26;;;;;;;7.03;1.77;;;;;;;-1.41;29.49;101591.56;5115187;28;20027;-60
2022/03/10 11:02:08;;;;;;;7.38;2.00;;;;;;;-2.33;27.70;101549.75;5114766;28;20039;-61
2022/03/10 11:04:34;;;;;;;3.88;2.03;;;;;;;-1.69;28.36;101595.03;5107594;28;20020;-59
2022/03/10 11:07:00;;;;;;;7.15;2.05;;;;;;;-1.59;29.75;101597.31;5108374;28;20058;-60
2022/03/10 11:09:26;;;;;;;6.30;2.40;;;;;;;-1.74;28.77;101601.50;5089664;28;20210;-60
2022/03/10 11:11:53;;;;;;;10.45;2.28;;;;;;;-1.75;27.78;101602.31;5113089;28;20062;-60
2022/03/10 11:14:19;;;;;;;9.55;2.03;;;;;;;-1.75;28.96;101592.16;5121467;28;20031;-60
2022/03/10 11:16:46;;;;;;;2.13;1.75;;;;;;;-1.58;29.05;101570.28;5103271;28;20065;-60
2022/03/10 11:19:13;;;;;;;3.38;2.05;;;;;;;-1.38;29.63;101586.69;5118772;28;20068;-60
2022/03/10 11:21:41;;;;;;;3.35;1.98;;;;;;;-1.44;28.90;101597.38;5111608;28;20034;-60
2022/03/10 11:24:19;;;;;;;3.85;2.00;;;;;;;-1.55;28.51;101595.84;5104253;28;20034;-60